sensor_id;sensor_type;location;lat;lon;timestamp;P1;durP1;ratioP1;P2;durP2;ratioP2
12972;SDS011;6551;51.056;9.466;2022-12-18T00:01:18;21.47;;;11.50;;
12972;SDS011;6551;51.056;9.466;2022-12-18T00:03:52;23.37;;;10.90;;
12972;SDS011;6551;51.056;9.466;2022-12-18T00:06:19;21.43;;;11.20;;
12972;SDS011;6551;51.056;9.466;2022-12-18T00:08:46;23.13;;;12.10;;
12972;SDS011;6551;51.056;9.466;2022-12-18T00:11:13;24.23;;;11.50;;
12972;SDS011;6551;51.056;9.466;2022-12-18T00:13:42;22.20;;;10.70;;
12972;SDS011;6551;51.056;9.466;2022-12-18T00:16:09;22.63;;;11.10;;
12972;SDS011;6551;51.056;9.466;2022-12-18T00:18:38;25.57;;;11.00;;
12972;SDS011;6551;51.056;9.466;2022-12-18T00:21:06;19.10;;;10.07;;
12972;SDS011;6551;51.056;9.466;2022-12-18T00:23:36;19.30;;;10.20;;
12972;SDS011;6551;51.056;9.466;2022-12-18T00:26:03;18.40;;;9.57;;
12972;SDS011;6551;51.056;9.466;2022-12-18T00:28:31;16.80;;;8.33;;
12972;SDS011;6551;51.056;9.466;2022-12-18T00:31:02;22.87;;;9.37;;
12972;SDS011;6551;51.056;9.466;2022-12-18T00:33:29;18.83;;;10.57;;
12972;SDS011;6551;51.056;9.466;2022-12-18T00:38:29;21.00;;;9.50;;
12972;SDS011;6551;51.056;9.466;2022-12-18T00:40:55;19.93;;;9.00;;
12972;SDS011;6551;51.056;9.466;2022-12-18T00:43:21;16.27;;;8.80;;
12972;SDS011;6551;51.056;9.466;2022-12-18T00:45:48;15.93;;;8.83;;
12972;SDS011;6551;51.056;9.466;2022-12-18T00:48:14;17.13;;;8.43;;
12972;SDS011;6551;51.056;9.466;2022-12-18T00:50:40;20.80;;;10.53;;
12972;SDS011;6551;51.056;9.466;2022-12-18T00:53:06;15.23;;;9.00;;
12972;SDS011;6551;51.056;9.466;2022-12-18T00:55:32;19.13;;;8.83;;
12972;SDS011;6551;51.056;9.466;2022-12-18T00:57:58;16.70;;;8.00;;
12972;SDS011;6551;51.056;9.466;2022-12-18T01:00:24;12.97;;;7.43;;
12972;SDS011;6551;51.056;9.466;2022-12-18T01:02:50;17.33;;;8.70;;
12972;SDS011;6551;51.056;9.466;2022-12-18T01:05:16;14.17;;;7.20;;
12972;SDS011;6551;51.056;9.466;2022-12-18T01:07:42;16.70;;;8.93;;
12972;SDS011;6551;51.056;9.466;2022-12-18T01:10:09;17.83;;;9.03;;
12972;SDS011;6551;51.056;9.466;2022-12-18T01:12:36;16.93;;;8.80;;
12972;SDS011;6551;51.056;9.466;2022-12-18T01:15:02;14.27;;;7.27;;
12972;SDS011;6551;51.056;9.466;2022-12-18T01:17:30;16.10;;;8.70;;
12972;SDS011;6551;51.056;9.466;2022-12-18T01:19:55;17.03;;;9.13;;
12972;SDS011;6551;51.056;9.466;2022-12-18T01:22:21;16.30;;;8.00;;
12972;SDS011;6551;51.056;9.466;2022-12-18T01:24:47;16.57;;;8.77;;
12972;SDS011;6551;51.056;9.466;2022-12-18T01:27:13;12.63;;;6.90;;
12972;SDS011;6551;51.056;9.466;2022-12-18T01:29:40;15.73;;;8.13;;
12972;SDS011;6551;51.056;9.466;2022-12-18T01:32:05;14.47;;;7.03;;
12972;SDS011;6551;51.056;9.466;2022-12-18T01:34:32;15.30;;;7.37;;
12972;SDS011;6551;51.056;9.466;2022-12-18T01:37:01;12.77;;;6.60;;
12972;SDS011;6551;51.056;9.466;2022-12-18T01:39:31;13.07;;;6.40;;
12972;SDS011;6551;51.056;9.466;2022-12-18T01:42:02;29.60;;;11.80;;
12972;SDS011;6551;51.056;9.466;2022-12-18T01:50:15;20.17;;;9.87;;
12972;SDS011;6551;51.056;9.466;2022-12-18T01:52:59;18.33;;;8.60;;
12972;SDS011;6551;51.056;9.466;2022-12-18T01:55:43;20.40;;;9.07;;
12972;SDS011;6551;51.056;9.466;2022-12-18T01:58:21;15.13;;;7.13;;
12972;SDS011;6551;51.056;9.466;2022-12-18T02:01:13;16.00;;;8.00;;
12972;SDS011;6551;51.056;9.466;2022-12-18T02:03:42;16.30;;;8.63;;
12972;SDS011;6551;51.056;9.466;2022-12-18T02:06:13;17.20;;;8.33;;
12972;SDS011;6551;51.056;9.466;2022-12-18T02:11:53;16.47;;;7.00;;
12972;SDS011;6551;51.056;9.466;2022-12-18T02:14:42;20.67;;;7.53;;
12972;SDS011;6551;51.056;9.466;2022-12-18T02:17:17;14.90;;;7.43;;
12972;SDS011;6551;51.056;9.466;2022-12-18T02:19:50;14.00;;;7.10;;
12972;SDS011;6551;51.056;9.466;2022-12-18T02:26:01;13.87;;;6.73;;
12972;SDS011;6551;51.056;9.466;2022-12-18T02:31:25;16.67;;;8.17;;
12972;SDS011;6551;51.056;9.466;2022-12-18T02:33:56;12.27;;;6.87;;
12972;SDS011;6551;51.056;9.466;2022-12-18T02:36:27;12.50;;;7.33;;
12972;SDS011;6551;51.056;9.466;2022-12-18T02:38:54;14.17;;;7.47;;
12972;SDS011;6551;51.056;9.466;2022-12-18T02:41:24;13.87;;;7.00;;
12972;SDS011;6551;51.056;9.466;2022-12-18T02:43:58;14.67;;;7.07;;
12972;SDS011;6551;51.056;9.466;2022-12-18T02:49:01;14.47;;;7.13;;
12972;SDS011;6551;51.056;9.466;2022-12-18T02:57:15;22.27;;;10.30;;
12972;SDS011;6551;51.056;9.466;2022-12-18T03:00:30;17.87;;;7.70;;
12972;SDS011;6551;51.056;9.466;2022-12-18T03:02:57;10.83;;;6.43;;
12972;SDS011;6551;51.056;9.466;2022-12-18T03:05:35;13.50;;;6.93;;
12972;SDS011;6551;51.056;9.466;2022-12-18T03:08:23;10.97;;;6.07;;
12972;SDS011;6551;51.056;9.466;2022-12-18T03:11:03;12.57;;;6.43;;
12972;SDS011;6551;51.056;9.466;2022-12-18T03:13:46;14.37;;;6.50;;
12972;SDS011;6551;51.056;9.466;2022-12-18T03:16:22;12.27;;;6.23;;
12972;SDS011;6551;51.056;9.466;2022-12-18T03:18:54;16.97;;;8.37;;
12972;SDS011;6551;51.056;9.466;2022-12-18T03:21:45;17.10;;;8.40;;
12972;SDS011;6551;51.056;9.466;2022-12-18T03:24:17;16.37;;;8.27;;
12972;SDS011;6551;51.056;9.466;2022-12-18T03:26:46;15.97;;;7.17;;
12972;SDS011;6551;51.056;9.466;2022-12-18T03:29:21;18.83;;;7.50;;
12972;SDS011;6551;51.056;9.466;2022-12-18T03:32:01;12.53;;;5.73;;
12972;SDS011;6551;51.056;9.466;2022-12-18T03:34:31;13.03;;;6.37;;
12972;SDS011;6551;51.056;9.466;2022-12-18T03:37:02;13.63;;;6.60;;
12972;SDS011;6551;51.056;9.466;2022-12-18T03:39:28;12.40;;;6.03;;
12972;SDS011;6551;51.056;9.466;2022-12-18T03:44:36;14.03;;;6.67;;
12972;SDS011;6551;51.056;9.466;2022-12-18T03:55:03;11.90;;;6.33;;
12972;SDS011;6551;51.056;9.466;2022-12-18T03:57:32;7.63;;;4.73;;
12972;SDS011;6551;51.056;9.466;2022-12-18T04:00:00;9.67;;;5.20;;
12972;SDS011;6551;51.056;9.466;2022-12-18T04:02:37;9.07;;;5.23;;
12972;SDS011;6551;51.056;9.466;2022-12-18T04:05:08;10.63;;;5.33;;
12972;SDS011;6551;51.056;9.466;2022-12-18T04:07:36;23.73;;;8.97;;
12972;SDS011;6551;51.056;9.466;2022-12-18T04:10:04;24.80;;;9.50;;
12972;SDS011;6551;51.056;9.466;2022-12-18T04:12:33;11.57;;;6.10;;
12972;SDS011;6551;51.056;9.466;2022-12-18T04:14:58;13.40;;;6.20;;
12972;SDS011;6551;51.056;9.466;2022-12-18T04:17:24;11.27;;;5.23;;
12972;SDS011;6551;51.056;9.466;2022-12-18T04:19:50;9.67;;;5.03;;
12972;SDS011;6551;51.056;9.466;2022-12-18T04:22:16;9.37;;;5.43;;
12972;SDS011;6551;51.056;9.466;2022-12-18T04:24:42;10.33;;;5.33;;
12972;SDS011;6551;51.056;9.466;2022-12-18T04:27:08;12.07;;;5.13;;
12972;SDS011;6551;51.056;9.466;2022-12-18T04:29:34;11.10;;;5.40;;
12972;SDS011;6551;51.056;9.466;2022-12-18T04:32:00;8.60;;;5.23;;
12972;SDS011;6551;51.056;9.466;2022-12-18T04:34:26;12.00;;;5.10;;
12972;SDS011;6551;51.056;9.466;2022-12-18T04:36:52;7.97;;;4.50;;
12972;SDS011;6551;51.056;9.466;2022-12-18T04:39:17;8.50;;;3.97;;
12972;SDS011;6551;51.056;9.466;2022-12-18T04:41:43;8.53;;;4.50;;
12972;SDS011;6551;51.056;9.466;2022-12-18T04:44:10;8.03;;;4.43;;
12972;SDS011;6551;51.056;9.466;2022-12-18T04:46:35;9.47;;;4.10;;
12972;SDS011;6551;51.056;9.466;2022-12-18T04:49:01;9.20;;;5.40;;
12972;SDS011;6551;51.056;9.466;2022-12-18T04:51:27;13.80;;;6.53;;
12972;SDS011;6551;51.056;9.466;2022-12-18T04:53:53;17.00;;;7.83;;
12972;SDS011;6551;51.056;9.466;2022-12-18T04:56:19;12.63;;;6.40;;
12972;SDS011;6551;51.056;9.466;2022-12-18T04:58:45;11.47;;;6.17;;
12972;SDS011;6551;51.056;9.466;2022-12-18T05:01:14;11.03;;;5.23;;
12972;SDS011;6551;51.056;9.466;2022-12-18T05:03:41;23.43;;;9.33;;
12972;SDS011;6551;51.056;9.466;2022-12-18T05:06:07;14.73;;;6.70;;
12972;SDS011;6551;51.056;9.466;2022-12-18T05:08:34;12.60;;;6.70;;
12972;SDS011;6551;51.056;9.466;2022-12-18T05:11:00;12.50;;;7.23;;
12972;SDS011;6551;51.056;9.466;2022-12-18T05:13:29;19.90;;;7.70;;
12972;SDS011;6551;51.056;9.466;2022-12-18T05:15:55;18.00;;;8.07;;
12972;SDS011;6551;51.056;9.466;2022-12-18T05:18:24;22.97;;;9.83;;
12972;SDS011;6551;51.056;9.466;2022-12-18T05:20:51;20.80;;;9.53;;
12972;SDS011;6551;51.056;9.466;2022-12-18T05:23:19;24.10;;;10.03;;
12972;SDS011;6551;51.056;9.466;2022-12-18T05:25:47;18.40;;;7.50;;
12972;SDS011;6551;51.056;9.466;2022-12-18T05:28:18;17.77;;;7.53;;
12972;SDS011;6551;51.056;9.466;2022-12-18T05:30:51;23.33;;;11.20;;
12972;SDS011;6551;51.056;9.466;2022-12-18T05:33:21;21.90;;;10.43;;
12972;SDS011;6551;51.056;9.466;2022-12-18T05:35:51;21.83;;;9.43;;
12972;SDS011;6551;51.056;9.466;2022-12-18T05:38:26;24.43;;;8.97;;
12972;SDS011;6551;51.056;9.466;2022-12-18T05:40:54;18.77;;;8.77;;
12972;SDS011;6551;51.056;9.466;2022-12-18T05:43:21;21.77;;;9.57;;
12972;SDS011;6551;51.056;9.466;2022-12-18T05:45:49;21.73;;;9.43;;
12972;SDS011;6551;51.056;9.466;2022-12-18T05:48:16;18.73;;;8.77;;
12972;SDS011;6551;51.056;9.466;2022-12-18T05:50:42;25.27;;;9.87;;
12972;SDS011;6551;51.056;9.466;2022-12-18T05:53:13;18.97;;;9.50;;
12972;SDS011;6551;51.056;9.466;2022-12-18T05:55:42;19.27;;;8.07;;
12972;SDS011;6551;51.056;9.466;2022-12-18T05:58:09;23.70;;;12.00;;
12972;SDS011;6551;51.056;9.466;2022-12-18T06:00:37;19.93;;;8.97;;
12972;SDS011;6551;51.056;9.466;2022-12-18T06:03:09;24.73;;;10.37;;
12972;SDS011;6551;51.056;9.466;2022-12-18T06:05:37;18.10;;;9.80;;
12972;SDS011;6551;51.056;9.466;2022-12-18T06:08:04;20.10;;;9.70;;
12972;SDS011;6551;51.056;9.466;2022-12-18T06:10:30;18.60;;;8.20;;
12972;SDS011;6551;51.056;9.466;2022-12-18T06:12:56;11.97;;;6.83;;
12972;SDS011;6551;51.056;9.466;2022-12-18T06:15:22;22.63;;;9.00;;
12972;SDS011;6551;51.056;9.466;2022-12-18T06:17:47;12.50;;;6.70;;
12972;SDS011;6551;51.056;9.466;2022-12-18T06:20:13;18.20;;;8.20;;
12972;SDS011;6551;51.056;9.466;2022-12-18T06:22:39;17.60;;;7.40;;
12972;SDS011;6551;51.056;9.466;2022-12-18T06:25:05;17.53;;;8.90;;
12972;SDS011;6551;51.056;9.466;2022-12-18T06:27:32;19.40;;;9.40;;
12972;SDS011;6551;51.056;9.466;2022-12-18T06:29:58;14.27;;;7.37;;
12972;SDS011;6551;51.056;9.466;2022-12-18T06:32:25;17.07;;;7.10;;
12972;SDS011;6551;51.056;9.466;2022-12-18T06:34:51;16.30;;;7.97;;
12972;SDS011;6551;51.056;9.466;2022-12-18T06:37:18;16.27;;;8.50;;
12972;SDS011;6551;51.056;9.466;2022-12-18T06:39:44;16.13;;;7.87;;
12972;SDS011;6551;51.056;9.466;2022-12-18T06:42:09;16.90;;;8.37;;
12972;SDS011;6551;51.056;9.466;2022-12-18T06:44:35;24.53;;;9.87;;
12972;SDS011;6551;51.056;9.466;2022-12-18T06:47:01;17.77;;;9.00;;
12972;SDS011;6551;51.056;9.466;2022-12-18T06:49:27;17.17;;;8.77;;
12972;SDS011;6551;51.056;9.466;2022-12-18T06:51:53;19.63;;;9.50;;
12972;SDS011;6551;51.056;9.466;2022-12-18T06:54:19;17.50;;;8.47;;
12972;SDS011;6551;51.056;9.466;2022-12-18T06:56:45;19.30;;;8.13;;
12972;SDS011;6551;51.056;9.466;2022-12-18T06:59:12;27.93;;;14.40;;
12972;SDS011;6551;51.056;9.466;2022-12-18T07:01:39;22.30;;;12.13;;
12972;SDS011;6551;51.056;9.466;2022-12-18T07:04:05;19.13;;;9.97;;
12972;SDS011;6551;51.056;9.466;2022-12-18T07:06:31;15.23;;;8.17;;
12972;SDS011;6551;51.056;9.466;2022-12-18T07:08:57;12.90;;;7.43;;
12972;SDS011;6551;51.056;9.466;2022-12-18T07:11:22;10.10;;;5.43;;
12972;SDS011;6551;51.056;9.466;2022-12-18T07:13:48;11.77;;;5.93;;
12972;SDS011;6551;51.056;9.466;2022-12-18T07:16:15;13.53;;;7.60;;
12972;SDS011;6551;51.056;9.466;2022-12-18T07:18:45;22.00;;;10.33;;
12972;SDS011;6551;51.056;9.466;2022-12-18T07:21:14;33.67;;;15.20;;
12972;SDS011;6551;51.056;9.466;2022-12-18T07:23:43;19.07;;;10.50;;
12972;SDS011;6551;51.056;9.466;2022-12-18T07:26:13;11.77;;;5.83;;
12972;SDS011;6551;51.056;9.466;2022-12-18T07:28:41;8.63;;;5.93;;
12972;SDS011;6551;51.056;9.466;2022-12-18T07:31:08;14.77;;;8.63;;
12972;SDS011;6551;51.056;9.466;2022-12-18T07:33:39;12.43;;;6.40;;
12972;SDS011;6551;51.056;9.466;2022-12-18T07:36:06;10.97;;;6.37;;
12972;SDS011;6551;51.056;9.466;2022-12-18T07:38:34;17.37;;;9.33;;
12972;SDS011;6551;51.056;9.466;2022-12-18T07:41:04;22.53;;;11.93;;
12972;SDS011;6551;51.056;9.466;2022-12-18T07:43:33;18.03;;;10.60;;
12972;SDS011;6551;51.056;9.466;2022-12-18T07:46:00;16.10;;;9.37;;
12972;SDS011;6551;51.056;9.466;2022-12-18T07:48:27;13.17;;;7.50;;
12972;SDS011;6551;51.056;9.466;2022-12-18T07:50:57;24.53;;;11.00;;
12972;SDS011;6551;51.056;9.466;2022-12-18T07:53:29;17.67;;;8.77;;
12972;SDS011;6551;51.056;9.466;2022-12-18T07:55:56;17.83;;;9.60;;
12972;SDS011;6551;51.056;9.466;2022-12-18T07:58:27;21.50;;;9.67;;
12972;SDS011;6551;51.056;9.466;2022-12-18T08:00:53;18.50;;;8.70;;
12972;SDS011;6551;51.056;9.466;2022-12-18T08:03:26;15.70;;;9.23;;
12972;SDS011;6551;51.056;9.466;2022-12-18T08:05:57;14.93;;;7.27;;
12972;SDS011;6551;51.056;9.466;2022-12-18T08:08:34;17.03;;;8.40;;
12972;SDS011;6551;51.056;9.466;2022-12-18T08:11:00;22.50;;;8.87;;
12972;SDS011;6551;51.056;9.466;2022-12-18T08:13:27;19.07;;;8.60;;
12972;SDS011;6551;51.056;9.466;2022-12-18T08:15:59;35.13;;;13.67;;
12972;SDS011;6551;51.056;9.466;2022-12-18T08:18:33;17.10;;;8.23;;
12972;SDS011;6551;51.056;9.466;2022-12-18T08:21:10;14.23;;;8.50;;
12972;SDS011;6551;51.056;9.466;2022-12-18T08:23:40;15.47;;;7.53;;
12972;SDS011;6551;51.056;9.466;2022-12-18T08:26:07;14.63;;;7.90;;
12972;SDS011;6551;51.056;9.466;2022-12-18T08:28:33;16.00;;;8.50;;
12972;SDS011;6551;51.056;9.466;2022-12-18T08:30:59;12.93;;;7.83;;
12972;SDS011;6551;51.056;9.466;2022-12-18T08:33:25;16.10;;;8.60;;
12972;SDS011;6551;51.056;9.466;2022-12-18T08:35:51;19.07;;;9.90;;
12972;SDS011;6551;51.056;9.466;2022-12-18T08:38:17;22.80;;;13.77;;
12972;SDS011;6551;51.056;9.466;2022-12-18T08:40:43;26.27;;;15.70;;
12972;SDS011;6551;51.056;9.466;2022-12-18T08:43:10;23.37;;;13.83;;
12972;SDS011;6551;51.056;9.466;2022-12-18T08:45:54;22.30;;;12.63;;
12972;SDS011;6551;51.056;9.466;2022-12-18T08:48:21;24.63;;;15.27;;
12972;SDS011;6551;51.056;9.466;2022-12-18T08:50:57;20.50;;;12.40;;
12972;SDS011;6551;51.056;9.466;2022-12-18T08:53:24;21.17;;;14.07;;
12972;SDS011;6551;51.056;9.466;2022-12-18T08:55:51;26.30;;;16.50;;
12972;SDS011;6551;51.056;9.466;2022-12-18T08:58:17;30.03;;;17.57;;
12972;SDS011;6551;51.056;9.466;2022-12-18T09:00:43;26.50;;;16.13;;
12972;SDS011;6551;51.056;9.466;2022-12-18T09:03:12;33.77;;;18.50;;
12972;SDS011;6551;51.056;9.466;2022-12-18T09:05:40;35.43;;;19.17;;
12972;SDS011;6551;51.056;9.466;2022-12-18T09:08:06;33.70;;;19.30;;
12972;SDS011;6551;51.056;9.466;2022-12-18T09:10:32;33.97;;;21.23;;
12972;SDS011;6551;51.056;9.466;2022-12-18T09:12:58;34.00;;;21.47;;
12972;SDS011;6551;51.056;9.466;2022-12-18T09:15:23;44.70;;;27.13;;
12972;SDS011;6551;51.056;9.466;2022-12-18T09:17:49;40.67;;;26.37;;
12972;SDS011;6551;51.056;9.466;2022-12-18T09:20:17;37.70;;;24.13;;
12972;SDS011;6551;51.056;9.466;2022-12-18T09:22:44;38.53;;;27.33;;
12972;SDS011;6551;51.056;9.466;2022-12-18T09:25:09;39.63;;;27.33;;
12972;SDS011;6551;51.056;9.466;2022-12-18T09:27:35;56.10;;;33.37;;
12972;SDS011;6551;51.056;9.466;2022-12-18T09:30:01;61.00;;;40.43;;
12972;SDS011;6551;51.056;9.466;2022-12-18T09:32:27;54.17;;;34.40;;
12972;SDS011;6551;51.056;9.466;2022-12-18T09:34:53;48.03;;;31.77;;
12972;SDS011;6551;51.056;9.466;2022-12-18T09:37:19;48.10;;;30.40;;
12972;SDS011;6551;51.056;9.466;2022-12-18T09:39:44;47.10;;;30.23;;
12972;SDS011;6551;51.056;9.466;2022-12-18T09:42:22;36.23;;;23.23;;
12972;SDS011;6551;51.056;9.466;2022-12-18T09:44:49;41.53;;;26.60;;
12972;SDS011;6551;51.056;9.466;2022-12-18T09:50:01;41.20;;;25.20;;
12972;SDS011;6551;51.056;9.466;2022-12-18T09:52:35;59.13;;;37.40;;
12972;SDS011;6551;51.056;9.466;2022-12-18T09:55:16;42.20;;;24.53;;
12972;SDS011;6551;51.056;9.466;2022-12-18T09:58:15;33.93;;;20.73;;
12972;SDS011;6551;51.056;9.466;2022-12-18T10:01:01;21.73;;;13.10;;
12972;SDS011;6551;51.056;9.466;2022-12-18T10:03:26;23.27;;;13.17;;
12972;SDS011;6551;51.056;9.466;2022-12-18T10:11:16;16.37;;;7.90;;
12972;SDS011;6551;51.056;9.466;2022-12-18T10:13:55;11.80;;;6.13;;
12972;SDS011;6551;51.056;9.466;2022-12-18T10:27:40;11.90;;;7.83;;
12972;SDS011;6551;51.056;9.466;2022-12-18T10:30:13;18.90;;;8.77;;
12972;SDS011;6551;51.056;9.466;2022-12-18T10:32:42;13.40;;;7.90;;
12972;SDS011;6551;51.056;9.466;2022-12-18T10:35:15;12.70;;;8.37;;
12972;SDS011;6551;51.056;9.466;2022-12-18T10:43:38;13.50;;;8.80;;
12972;SDS011;6551;51.056;9.466;2022-12-18T10:48:35;12.57;;;7.90;;
12972;SDS011;6551;51.056;9.466;2022-12-18T10:54:02;10.80;;;7.07;;
12972;SDS011;6551;51.056;9.466;2022-12-18T10:56:44;11.43;;;7.53;;
12972;SDS011;6551;51.056;9.466;2022-12-18T10:59:11;13.00;;;7.63;;
12972;SDS011;6551;51.056;9.466;2022-12-18T11:07:00;11.80;;;7.53;;
12972;SDS011;6551;51.056;9.466;2022-12-18T11:09:29;14.57;;;7.97;;
12972;SDS011;6551;51.056;9.466;2022-12-18T11:12:01;12.17;;;7.27;;
12972;SDS011;6551;51.056;9.466;2022-12-18T11:14:49;10.87;;;7.40;;
12972;SDS011;6551;51.056;9.466;2022-12-18T11:17:21;13.80;;;7.97;;
12972;SDS011;6551;51.056;9.466;2022-12-18T11:19:58;16.43;;;10.10;;
12972;SDS011;6551;51.056;9.466;2022-12-18T11:22:31;12.60;;;7.97;;
12972;SDS011;6551;51.056;9.466;2022-12-18T11:25:00;12.87;;;8.10;;
12972;SDS011;6551;51.056;9.466;2022-12-18T11:27:28;13.93;;;7.87;;
12972;SDS011;6551;51.056;9.466;2022-12-18T11:30:06;12.63;;;7.40;;
12972;SDS011;6551;51.056;9.466;2022-12-18T11:32:44;13.10;;;6.93;;
12972;SDS011;6551;51.056;9.466;2022-12-18T11:35:34;10.37;;;6.70;;
12972;SDS011;6551;51.056;9.466;2022-12-18T11:38:29;10.17;;;6.33;;
12972;SDS011;6551;51.056;9.466;2022-12-18T11:41:19;12.50;;;6.93;;
12972;SDS011;6551;51.056;9.466;2022-12-18T11:44:10;15.17;;;8.10;;
12972;SDS011;6551;51.056;9.466;2022-12-18T11:46:45;25.03;;;12.20;;
12972;SDS011;6551;51.056;9.466;2022-12-18T11:49:24;19.73;;;10.00;;
12972;SDS011;6551;51.056;9.466;2022-12-18T11:52:14;18.27;;;9.97;;
12972;SDS011;6551;51.056;9.466;2022-12-18T11:55:28;19.70;;;10.23;;
12972;SDS011;6551;51.056;9.466;2022-12-18T11:58:19;25.33;;;15.50;;
12972;SDS011;6551;51.056;9.466;2022-12-18T12:10:02;14.20;;;8.50;;
12972;SDS011;6551;51.056;9.466;2022-12-18T12:15:21;12.37;;;7.43;;
12972;SDS011;6551;51.056;9.466;2022-12-18T12:24:25;19.57;;;8.63;;
12972;SDS011;6551;51.056;9.466;2022-12-18T12:33:03;14.77;;;7.57;;
12972;SDS011;6551;51.056;9.466;2022-12-18T12:38:57;15.13;;;7.50;;
12972;SDS011;6551;51.056;9.466;2022-12-18T12:41:31;20.77;;;9.37;;
12972;SDS011;6551;51.056;9.466;2022-12-18T12:44:25;15.03;;;8.93;;
12972;SDS011;6551;51.056;9.466;2022-12-18T12:46:58;13.53;;;6.70;;
12972;SDS011;6551;51.056;9.466;2022-12-18T12:49:31;12.43;;;7.07;;
12972;SDS011;6551;51.056;9.466;2022-12-18T12:54:30;12.93;;;7.00;;
12972;SDS011;6551;51.056;9.466;2022-12-18T13:00:09;10.17;;;6.30;;
12972;SDS011;6551;51.056;9.466;2022-12-18T13:05:21;12.33;;;6.63;;
12972;SDS011;6551;51.056;9.466;2022-12-18T13:08:10;16.33;;;8.23;;
12972;SDS011;6551;51.056;9.466;2022-12-18T13:10:47;12.70;;;7.10;;
12972;SDS011;6551;51.056;9.466;2022-12-18T13:13:14;12.97;;;7.37;;
12972;SDS011;6551;51.056;9.466;2022-12-18T13:15:45;14.00;;;7.87;;
12972;SDS011;6551;51.056;9.466;2022-12-18T13:18:29;14.77;;;8.20;;
12972;SDS011;6551;51.056;9.466;2022-12-18T13:25:56;12.17;;;7.57;;
12972;SDS011;6551;51.056;9.466;2022-12-18T13:36:48;13.40;;;8.17;;
12972;SDS011;6551;51.056;9.466;2022-12-18T13:41:48;15.87;;;8.37;;
12972;SDS011;6551;51.056;9.466;2022-12-18T13:47:05;13.03;;;7.37;;
12972;SDS011;6551;51.056;9.466;2022-12-18T13:49:57;12.57;;;7.60;;
12972;SDS011;6551;51.056;9.466;2022-12-18T13:52:28;14.90;;;8.10;;
12972;SDS011;6551;51.056;9.466;2022-12-18T13:54:59;14.20;;;7.67;;
12972;SDS011;6551;51.056;9.466;2022-12-18T13:57:31;14.90;;;7.83;;
12972;SDS011;6551;51.056;9.466;2022-12-18T14:00:19;15.90;;;7.80;;
12972;SDS011;6551;51.056;9.466;2022-12-18T14:02:53;16.87;;;7.77;;
12972;SDS011;6551;51.056;9.466;2022-12-18T14:05:23;13.53;;;7.97;;
12972;SDS011;6551;51.056;9.466;2022-12-18T14:08:01;14.50;;;7.63;;
12972;SDS011;6551;51.056;9.466;2022-12-18T14:10:34;19.17;;;7.73;;
12972;SDS011;6551;51.056;9.466;2022-12-18T14:13:08;15.53;;;8.60;;
12972;SDS011;6551;51.056;9.466;2022-12-18T14:15:40;12.73;;;8.17;;
12972;SDS011;6551;51.056;9.466;2022-12-18T14:21:27;13.90;;;8.50;;
12972;SDS011;6551;51.056;9.466;2022-12-18T14:26:43;13.13;;;8.50;;
12972;SDS011;6551;51.056;9.466;2022-12-18T14:29:24;14.13;;;8.63;;
12972;SDS011;6551;51.056;9.466;2022-12-18T14:34:41;14.33;;;7.80;;
12972;SDS011;6551;51.056;9.466;2022-12-18T14:37:09;15.80;;;8.33;;
12972;SDS011;6551;51.056;9.466;2022-12-18T14:39:37;16.73;;;7.73;;
12972;SDS011;6551;51.056;9.466;2022-12-18T14:42:02;15.10;;;8.20;;
12972;SDS011;6551;51.056;9.466;2022-12-18T14:44:28;12.93;;;7.93;;
12972;SDS011;6551;51.056;9.466;2022-12-18T14:46:55;16.50;;;8.83;;
12972;SDS011;6551;51.056;9.466;2022-12-18T14:49:40;12.13;;;8.00;;
12972;SDS011;6551;51.056;9.466;2022-12-18T14:52:24;13.60;;;7.83;;
12972;SDS011;6551;51.056;9.466;2022-12-18T14:54:54;13.40;;;8.23;;
12972;SDS011;6551;51.056;9.466;2022-12-18T14:57:23;13.97;;;8.53;;
12972;SDS011;6551;51.056;9.466;2022-12-18T15:00:03;14.37;;;8.20;;
12972;SDS011;6551;51.056;9.466;2022-12-18T15:02:31;12.77;;;7.70;;
12972;SDS011;6551;51.056;9.466;2022-12-18T15:07:47;12.77;;;7.63;;
12972;SDS011;6551;51.056;9.466;2022-12-18T15:10:22;13.07;;;7.80;;
12972;SDS011;6551;51.056;9.466;2022-12-18T15:20:44;24.57;;;13.57;;
12972;SDS011;6551;51.056;9.466;2022-12-18T15:26:03;24.90;;;13.43;;
12972;SDS011;6551;51.056;9.466;2022-12-18T15:33:41;22.40;;;10.80;;
12972;SDS011;6551;51.056;9.466;2022-12-18T15:36:14;17.97;;;10.17;;
12972;SDS011;6551;51.056;9.466;2022-12-18T15:38:45;16.63;;;10.13;;
12972;SDS011;6551;51.056;9.466;2022-12-18T15:41:19;16.30;;;9.33;;
12972;SDS011;6551;51.056;9.466;2022-12-18T15:43:47;21.07;;;9.73;;
12972;SDS011;6551;51.056;9.466;2022-12-18T15:46:16;20.33;;;10.57;;
12972;SDS011;6551;51.056;9.466;2022-12-18T15:48:47;22.23;;;11.30;;
12972;SDS011;6551;51.056;9.466;2022-12-18T15:51:23;16.57;;;8.67;;
12972;SDS011;6551;51.056;9.466;2022-12-18T15:54:03;21.50;;;10.30;;
12972;SDS011;6551;51.056;9.466;2022-12-18T15:56:34;19.37;;;10.60;;
12972;SDS011;6551;51.056;9.466;2022-12-18T15:59:19;18.53;;;9.50;;
12972;SDS011;6551;51.056;9.466;2022-12-18T16:01:46;16.20;;;9.43;;
12972;SDS011;6551;51.056;9.466;2022-12-18T16:04:14;17.07;;;9.20;;
12972;SDS011;6551;51.056;9.466;2022-12-18T16:06:45;17.07;;;9.30;;
12972;SDS011;6551;51.056;9.466;2022-12-18T16:09:10;17.80;;;9.20;;
12972;SDS011;6551;51.056;9.466;2022-12-18T16:11:36;15.93;;;7.97;;
12972;SDS011;6551;51.056;9.466;2022-12-18T16:14:20;15.10;;;9.10;;
12972;SDS011;6551;51.056;9.466;2022-12-18T16:16:47;20.13;;;9.70;;
12972;SDS011;6551;51.056;9.466;2022-12-18T16:19:16;18.87;;;10.03;;
12972;SDS011;6551;51.056;9.466;2022-12-18T16:21:42;17.30;;;9.67;;
12972;SDS011;6551;51.056;9.466;2022-12-18T16:24:27;17.13;;;10.43;;
12972;SDS011;6551;51.056;9.466;2022-12-18T16:26:56;16.30;;;9.40;;
12972;SDS011;6551;51.056;9.466;2022-12-18T16:29:24;18.13;;;9.60;;
12972;SDS011;6551;51.056;9.466;2022-12-18T16:32:01;16.50;;;9.53;;
12972;SDS011;6551;51.056;9.466;2022-12-18T16:34:28;18.13;;;9.67;;
12972;SDS011;6551;51.056;9.466;2022-12-18T16:36:57;17.20;;;9.70;;
12972;SDS011;6551;51.056;9.466;2022-12-18T16:39:28;30.10;;;15.63;;
12972;SDS011;6551;51.056;9.466;2022-12-18T16:41:55;20.27;;;11.00;;
12972;SDS011;6551;51.056;9.466;2022-12-18T16:44:21;20.03;;;13.07;;
12972;SDS011;6551;51.056;9.466;2022-12-18T16:46:48;21.73;;;10.90;;
12972;SDS011;6551;51.056;9.466;2022-12-18T16:49:17;19.73;;;10.23;;
12972;SDS011;6551;51.056;9.466;2022-12-18T16:51:45;19.50;;;10.03;;
12972;SDS011;6551;51.056;9.466;2022-12-18T16:54:11;20.80;;;10.63;;
12972;SDS011;6551;51.056;9.466;2022-12-18T16:56:37;21.10;;;10.83;;
12972;SDS011;6551;51.056;9.466;2022-12-18T16:59:03;18.97;;;10.40;;
12972;SDS011;6551;51.056;9.466;2022-12-18T17:01:30;21.80;;;10.50;;
12972;SDS011;6551;51.056;9.466;2022-12-18T17:03:57;20.80;;;10.57;;
12972;SDS011;6551;51.056;9.466;2022-12-18T17:06:26;17.40;;;9.90;;
12972;SDS011;6551;51.056;9.466;2022-12-18T17:08:58;17.67;;;8.83;;
12972;SDS011;6551;51.056;9.466;2022-12-18T17:11:26;16.03;;;9.50;;
12972;SDS011;6551;51.056;9.466;2022-12-18T17:13:55;18.70;;;9.83;;
12972;SDS011;6551;51.056;9.466;2022-12-18T17:16:21;19.80;;;10.30;;
12972;SDS011;6551;51.056;9.466;2022-12-18T17:18:48;19.57;;;10.40;;
12972;SDS011;6551;51.056;9.466;2022-12-18T17:21:15;18.93;;;10.47;;
12972;SDS011;6551;51.056;9.466;2022-12-18T17:23:41;19.63;;;10.13;;
12972;SDS011;6551;51.056;9.466;2022-12-18T17:26:08;19.00;;;9.77;;
12972;SDS011;6551;51.056;9.466;2022-12-18T17:28:36;17.97;;;9.17;;
12972;SDS011;6551;51.056;9.466;2022-12-18T17:31:14;20.13;;;9.93;;
12972;SDS011;6551;51.056;9.466;2022-12-18T17:33:44;16.60;;;8.90;;
12972;SDS011;6551;51.056;9.466;2022-12-18T17:36:11;16.70;;;9.03;;
12972;SDS011;6551;51.056;9.466;2022-12-18T17:38:37;21.90;;;10.30;;
12972;SDS011;6551;51.056;9.466;2022-12-18T17:41:05;20.50;;;10.53;;